createdAt,value
2022-11-04T00:00:39.778Z,2.15
2022-11-04T00:03:09.961Z,3.80
2022-11-04T00:05:38.521Z,0.73
2022-11-04T00:08:25.213Z,4.25
2022-11-04T00:11:13.549Z,2.05
2022-11-04T00:13:42.172Z,6.15
2022-11-04T00:16:27.901Z,4.43
2022-11-04T00:18:57.590Z,1.33
2022-11-04T00:21:43.681Z,1.33
2022-11-04T00:24:44.878Z,2.05
2022-11-04T00:27:31.080Z,1.42
2022-11-04T00:29:59.493Z,2.20
2022-11-04T00:32:45.620Z,1.73
2022-11-04T00:35:15.466Z,0.73
2022-11-04T00:37:44.630Z,1.33
2022-11-04T00:40:14.147Z,1.42
2022-11-04T00:42:42.678Z,1.90
2022-11-04T00:45:11.409Z,3.15
2022-11-04T00:47:39.674Z,1.08
2022-11-04T00:50:08.562Z,1.45
2022-11-04T00:52:38.155Z,3.75
2022-11-04T00:55:06.760Z,2.65
2022-11-04T00:57:35.171Z,5.72
2022-11-04T01:00:03.643Z,1.17
2022-11-04T01:02:32.233Z,0.20
2022-11-04T01:05:00.585Z,2.00
2022-11-04T01:07:28.760Z,1.05
2022-11-04T01:09:58.298Z,3.47
2022-11-04T01:12:26.559Z,0.20
2022-11-04T01:14:54.859Z,0.98
2022-11-04T01:17:23.205Z,1.77
2022-11-04T01:19:51.520Z,1.67
2022-11-04T01:22:20.272Z,1.40
2022-11-04T01:24:48.579Z,2.17
2022-11-04T01:27:18.231Z,3.13
2022-11-04T01:29:46.424Z,0.75
2022-11-04T01:32:14.677Z,1.13
2022-11-04T01:34:43.720Z,2.42
2022-11-04T01:37:12.631Z,1.25
2022-11-04T01:39:40.879Z,4.03
2022-11-04T01:42:11.868Z,1.23
2022-11-04T01:44:52.116Z,1.05
2022-11-04T01:47:22.124Z,1.80
2022-11-04T01:49:52.739Z,2.78
2022-11-04T01:52:23.888Z,2.45
2022-11-04T01:54:53.863Z,1.20
2022-11-04T01:57:26.901Z,0.52
2022-11-04T01:59:56.822Z,1.63
2022-11-04T02:02:25.312Z,1.13
2022-11-04T02:04:53.587Z,1.13
2022-11-04T02:07:21.910Z,2.20
2022-11-04T02:09:51.056Z,1.85
2022-11-04T02:12:36.893Z,1.45
2022-11-04T02:15:06.920Z,0.90
2022-11-04T02:17:40.496Z,0.30
2022-11-04T02:20:17.608Z,1.83
2022-11-04T02:22:57.913Z,1.35
2022-11-04T02:25:41.124Z,2.63
2022-11-04T02:28:20.123Z,1.45
2022-11-04T02:30:50.963Z,0.93
2022-11-04T02:33:21.412Z,1.45
2022-11-04T02:35:56.069Z,1.77
2022-11-04T02:38:31.777Z,1.75
2022-11-04T02:41:03.626Z,1.48
2022-11-04T02:43:35.716Z,3.13
2022-11-04T02:46:07.347Z,1.33
2022-11-04T02:48:37.996Z,3.65
2022-11-04T02:51:09.637Z,2.47
2022-11-04T02:53:42.669Z,3.50
2022-11-04T02:56:13.127Z,5.25
2022-11-04T02:58:43.419Z,4.38
2022-11-04T03:01:15.315Z,3.03
2022-11-04T03:03:46.813Z,3.80
2022-11-04T03:06:16.541Z,4.90
2022-11-04T03:08:49.155Z,4.80
2022-11-04T03:11:18.911Z,5.57
2022-11-04T03:13:49.890Z,5.57
2022-11-04T03:16:21.371Z,5.90
2022-11-04T03:18:56.485Z,8.80
2022-11-04T03:21:26.321Z,6.20
2022-11-04T03:23:54.576Z,5.75
2022-11-04T03:26:24.477Z,6.45
2022-11-04T03:28:55.144Z,6.63
2022-11-04T03:31:26.323Z,5.22
2022-11-04T03:33:55.267Z,4.57
2022-11-04T03:36:24.139Z,7.88
2022-11-04T03:38:55.644Z,5.65
2022-11-04T03:41:27.877Z,6.25
2022-11-04T03:43:56.118Z,6.15
2022-11-04T03:46:25.975Z,10.95
2022-11-04T03:48:54.963Z,4.57
2022-11-04T03:51:23.168Z,6.55
2022-11-04T03:53:57.269Z,7.30
2022-11-04T03:56:30.663Z,6.53
2022-11-04T03:59:04.621Z,8.73
2022-11-04T04:01:37.765Z,6.47
2022-11-04T04:04:13.315Z,6.70
2022-11-04T04:06:42.532Z,8.35
2022-11-04T04:09:13.743Z,11.50
2022-11-04T04:11:44.971Z,8.30
2022-11-04T04:14:36.688Z,13.52
2022-11-04T04:17:07.409Z,8.00
2022-11-04T04:19:36.313Z,7.90
2022-11-04T04:22:06.826Z,8.70
2022-11-04T04:24:55.775Z,8.73
2022-11-04T04:27:33.684Z,7.97
2022-11-04T04:30:03.292Z,9.43
2022-11-04T04:32:36.672Z,7.93
2022-11-04T04:35:23.080Z,8.93
2022-11-04T04:37:52.076Z,7.60
2022-11-04T04:40:39.854Z,10.30
2022-11-04T04:43:28.697Z,8.43
2022-11-04T04:45:57.364Z,7.05
2022-11-04T04:48:26.985Z,8.40
2022-11-04T04:50:56.904Z,7.18
2022-11-04T04:53:25.260Z,9.00
2022-11-04T04:55:53.590Z,8.38
2022-11-04T04:58:21.837Z,7.75
2022-11-04T05:00:50.118Z,8.15
2022-11-04T05:03:18.433Z,6.70
2022-11-04T05:05:48.000Z,6.50
2022-11-04T05:08:16.220Z,7.93
2022-11-04T05:10:44.547Z,12.25
2022-11-04T05:13:30.102Z,7.05
2022-11-04T05:15:59.087Z,6.78
2022-11-04T05:18:27.284Z,5.65
2022-11-04T05:20:56.835Z,7.40
2022-11-04T05:23:25.187Z,6.82
2022-11-04T05:25:53.413Z,5.82
2022-11-04T05:28:21.663Z,5.68
2022-11-04T05:30:50.083Z,8.60
2022-11-04T05:33:18.625Z,4.40
2022-11-04T05:35:46.855Z,4.93
2022-11-04T05:38:16.795Z,10.75
2022-11-04T05:40:45.084Z,7.47
2022-11-04T05:43:13.372Z,5.68
2022-11-04T05:45:41.812Z,6.05
2022-11-04T05:48:10.419Z,5.10
2022-11-04T05:50:38.704Z,8.88
2022-11-04T05:53:07.311Z,6.00
2022-11-04T05:55:37.068Z,6.15
2022-11-04T05:58:05.506Z,6.93
2022-11-04T06:00:34.070Z,5.38
2022-11-04T06:03:02.397Z,10.05
2022-11-04T06:05:30.906Z,6.60
2022-11-04T06:07:59.300Z,8.70
2022-11-04T06:10:27.584Z,5.45
2022-11-04T06:12:57.183Z,5.38
2022-11-04T06:15:25.613Z,7.68
2022-11-04T06:17:53.934Z,6.15
2022-11-04T06:20:22.192Z,7.90
2022-11-04T06:22:50.797Z,7.10
2022-11-04T06:25:18.989Z,5.22
2022-11-04T06:27:53.572Z,8.85
2022-11-04T06:30:23.643Z,5.50
2022-11-04T06:32:51.905Z,7.20
2022-11-04T06:35:20.089Z,8.43
2022-11-04T06:37:50.664Z,7.57
2022-11-04T06:40:18.939Z,8.23
2022-11-04T06:42:47.132Z,11.10
2022-11-04T06:45:15.530Z,7.50
2022-11-04T06:47:45.133Z,11.00
2022-11-04T06:50:16.188Z,6.78
2022-11-04T06:52:44.647Z,7.40
2022-11-04T06:55:14.348Z,6.18
2022-11-04T06:57:42.665Z,7.72
2022-11-04T07:00:11.625Z,7.13
2022-11-04T07:02:39.989Z,9.73
2022-11-04T07:05:12.196Z,6.00
2022-11-04T07:07:40.784Z,9.27
2022-11-04T07:10:09.426Z,6.55
2022-11-04T07:12:37.843Z,9.23
2022-11-04T07:15:06.520Z,6.18
2022-11-04T07:17:37.180Z,8.88
2022-11-04T07:20:06.539Z,6.65
2022-11-04T07:22:38.089Z,7.60
2022-11-04T07:25:07.024Z,7.35
2022-11-04T07:27:35.461Z,7.18
2022-11-04T07:30:03.760Z,7.10
2022-11-04T07:32:32.036Z,9.77
2022-11-04T07:35:00.941Z,6.95
2022-11-04T07:37:29.829Z,6.78
2022-11-04T07:39:59.604Z,7.53
2022-11-04T07:42:28.805Z,8.95
2022-11-04T07:44:57.753Z,6.20
2022-11-04T07:47:25.989Z,6.13
2022-11-04T07:49:54.280Z,5.45
2022-11-04T07:52:23.824Z,6.10
2022-11-04T07:54:52.341Z,5.70
2022-11-04T07:57:22.349Z,5.30
2022-11-04T07:59:56.407Z,7.80
2022-11-04T08:02:28.656Z,9.23
2022-11-04T08:04:59.540Z,5.28
2022-11-04T08:07:27.744Z,8.38
2022-11-04T08:09:55.942Z,7.63
2022-11-04T08:12:27.647Z,6.57
2022-11-04T08:14:57.968Z,5.18
2022-11-04T08:17:26.398Z,7.20
2022-11-04T08:19:54.610Z,9.15
2022-11-04T08:22:23.075Z,4.75
2022-11-04T08:24:51.289Z,4.15
2022-11-04T08:27:19.594Z,3.63
2022-11-04T08:29:49.530Z,6.55
2022-11-04T08:32:17.784Z,6.28
2022-11-04T08:34:46.300Z,11.77
2022-11-04T08:37:15.843Z,7.38
2022-11-04T08:39:46.661Z,6.38
2022-11-04T08:42:16.088Z,7.63
2022-11-04T08:44:45.027Z,13.98
2022-11-04T08:47:14.631Z,6.90
2022-11-04T08:49:42.950Z,4.85
2022-11-04T08:52:11.594Z,8.68
2022-11-04T08:54:41.110Z,9.50
2022-11-04T08:57:11.769Z,8.07
2022-11-04T08:59:40.057Z,10.18
2022-11-04T09:02:08.446Z,7.00
2022-11-04T09:04:38.092Z,6.82
2022-11-04T09:07:08.236Z,5.32
2022-11-04T09:09:36.866Z,4.47
2022-11-04T09:12:05.179Z,5.78
2022-11-04T09:14:33.391Z,10.32
2022-11-04T09:17:01.647Z,8.05
2022-11-04T09:19:29.869Z,9.13
2022-11-04T09:21:59.702Z,6.80
2022-11-04T09:24:27.956Z,6.80
2022-11-04T09:26:56.185Z,6.22
2022-11-04T09:29:25.324Z,10.20
2022-11-04T09:31:53.627Z,7.38
2022-11-04T09:34:21.826Z,6.40
2022-11-04T09:36:50.493Z,10.93
2022-11-04T09:39:20.050Z,8.50
2022-11-04T09:41:58.094Z,8.27
2022-11-04T09:44:28.765Z,9.60
2022-11-04T09:47:00.196Z,7.70
2022-11-04T09:49:29.955Z,7.72
2022-11-04T09:51:59.117Z,7.82
2022-11-04T09:54:29.821Z,9.10
2022-11-04T09:56:59.652Z,10.30
2022-11-04T09:59:30.400Z,8.40
2022-11-04T10:02:05.054Z,9.88
2022-11-04T10:04:41.107Z,8.70
2022-11-04T10:07:17.041Z,9.15
2022-11-04T10:09:56.339Z,7.68
2022-11-04T10:12:34.467Z,9.60
2022-11-04T10:15:17.996Z,10.52
2022-11-04T10:17:53.966Z,8.95
2022-11-04T10:20:28.996Z,8.80
2022-11-04T10:23:04.796Z,10.32
2022-11-04T10:25:40.659Z,8.07
2022-11-04T10:28:12.388Z,8.82
2022-11-04T10:30:42.939Z,9.23
2022-11-04T10:33:13.081Z,13.95
2022-11-04T10:35:44.037Z,10.65
2022-11-04T10:38:19.237Z,9.88
2022-11-04T10:40:49.881Z,8.90
2022-11-04T10:43:20.178Z,8.90
2022-11-04T10:45:53.372Z,7.97
2022-11-04T10:48:24.183Z,12.38
2022-11-04T10:50:53.884Z,8.18
2022-11-04T10:53:24.602Z,10.32
2022-11-04T10:55:59.486Z,6.97
2022-11-04T10:58:29.389Z,8.45
2022-11-04T11:00:59.077Z,11.13
2022-11-04T11:03:31.501Z,7.80
2022-11-04T11:06:15.503Z,9.45
2022-11-04T11:08:44.617Z,9.93
2022-11-04T11:11:16.576Z,9.02
2022-11-04T11:13:46.308Z,8.32
2022-11-04T11:16:18.888Z,6.88
2022-11-04T11:18:47.562Z,14.55
2022-11-04T11:21:21.186Z,7.75
2022-11-04T11:23:57.396Z,13.73
2022-11-04T11:26:32.418Z,9.25
2022-11-04T11:29:07.212Z,9.30
2022-11-04T11:31:37.400Z,6.40
2022-11-04T11:34:06.890Z,11.30
2022-11-04T11:36:36.007Z,9.15
2022-11-04T11:39:06.258Z,11.00
2022-11-04T11:41:42.505Z,10.63
2022-11-04T11:44:20.416Z,7.32
2022-11-04T11:46:55.405Z,4.47
2022-11-04T11:49:29.040Z,6.07
2022-11-04T11:51:58.011Z,5.97
2022-11-04T11:54:33.461Z,6.60
2022-11-04T11:57:13.673Z,3.22
2022-11-04T12:02:48.360Z,4.72
2022-11-04T12:11:16.193Z,2.55
2022-11-04T12:13:47.914Z,1.50
2022-11-04T12:16:23.268Z,3.72
2022-11-04T12:18:56.548Z,2.53
2022-11-04T12:21:33.122Z,2.17
2022-11-04T12:24:03.855Z,0.50
2022-11-04T12:26:37.464Z,1.05
2022-11-04T12:29:16.110Z,1.77
2022-11-04T12:31:51.004Z,1.13
2022-11-04T12:34:25.900Z,0.35
2022-11-04T12:36:58.259Z,0.63
2022-11-04T12:39:33.479Z,0.55
2022-11-04T12:42:20.462Z,0.57
2022-11-04T12:44:54.229Z,0.95
2022-11-04T12:47:30.667Z,0.80
2022-11-04T12:50:07.482Z,0.88
2022-11-04T12:52:42.422Z,2.42
2022-11-04T12:55:21.597Z,1.08
2022-11-04T12:57:55.035Z,1.15
2022-11-04T13:00:27.220Z,0.20
2022-11-04T13:02:59.502Z,1.30
2022-11-04T13:05:35.412Z,0.98
2022-11-04T13:08:11.340Z,0.75
2022-11-04T13:10:45.310Z,0.93
2022-11-04T13:13:15.273Z,0.47
2022-11-04T13:15:48.891Z,1.23
2022-11-04T13:18:19.213Z,1.75
2022-11-04T13:20:52.946Z,0.25
2022-11-04T13:23:25.194Z,0.70
2022-11-04T13:25:54.129Z,0.20
2022-11-04T13:28:26.743Z,1.48
2022-11-04T13:31:02.550Z,2.00
2022-11-04T13:33:34.406Z,2.38
2022-11-04T13:36:06.926Z,0.70
2022-11-04T13:38:37.490Z,0.40
2022-11-04T13:41:21.737Z,0.43
2022-11-04T13:43:55.086Z,0.20
2022-11-04T13:46:30.321Z,2.40
2022-11-04T13:49:01.018Z,0.20
2022-11-04T13:51:39.401Z,0.55
2022-11-04T13:54:08.949Z,2.00
2022-11-04T13:56:38.031Z,1.48
2022-11-04T13:59:09.630Z,0.50
2022-11-04T14:01:39.710Z,1.10
2022-11-04T14:04:20.782Z,2.63
2022-11-04T14:06:50.704Z,3.40
2022-11-04T14:09:32.795Z,2.80
2022-11-04T14:12:20.090Z,0.57
2022-11-04T14:14:51.180Z,0.40
2022-11-04T14:17:38.203Z,0.65
2022-11-04T14:20:12.610Z,0.90
2022-11-04T14:22:51.626Z,0.25
2022-11-04T14:25:21.435Z,0.68
2022-11-04T14:27:52.347Z,0.15
2022-11-04T14:30:38.867Z,1.20
2022-11-04T14:33:08.557Z,1.85
2022-11-04T14:35:38.524Z,2.38
2022-11-04T14:38:08.781Z,1.60
2022-11-04T14:40:47.140Z,0.57
2022-11-04T14:43:23.115Z,2.20
2022-11-04T14:45:51.580Z,1.40
2022-11-04T14:48:21.867Z,1.70
2022-11-04T14:50:53.686Z,1.33
2022-11-04T14:53:24.548Z,3.17
2022-11-04T14:56:07.391Z,2.22
2022-11-04T14:58:37.851Z,1.38
2022-11-04T15:01:11.960Z,1.27
2022-11-04T15:09:22.151Z,1.70
2022-11-04T15:12:12.037Z,1.88
2022-11-04T15:14:40.766Z,1.65
2022-11-04T15:17:11.724Z,1.33
2022-11-04T15:19:40.833Z,1.27
2022-11-04T15:22:27.202Z,5.35
2022-11-04T15:24:56.685Z,1.25
2022-11-04T15:27:27.390Z,2.03
2022-11-04T15:29:55.899Z,6.82
2022-11-04T15:32:26.219Z,3.45
2022-11-04T15:34:56.012Z,1.80
2022-11-04T15:37:28.812Z,1.05
2022-11-04T15:39:59.396Z,2.22
2022-11-04T15:42:40.003Z,4.95
2022-11-04T15:45:23.608Z,3.05
2022-11-04T15:48:11.868Z,4.35
2022-11-04T15:50:43.056Z,2.42
2022-11-04T15:53:13.200Z,3.13
2022-11-04T15:55:42.757Z,2.97
2022-11-04T15:58:11.901Z,2.78
2022-11-04T16:00:40.658Z,1.45
2022-11-04T16:03:18.408Z,0.85
2022-11-04T16:06:01.411Z,1.00
2022-11-04T16:08:32.055Z,1.15
2022-11-04T16:11:10.869Z,1.20
2022-11-04T16:13:39.655Z,3.88
2022-11-04T16:16:12.174Z,2.83
2022-11-04T16:18:41.784Z,4.68
2022-11-04T16:21:11.090Z,4.40
2022-11-04T16:23:46.883Z,2.08
2022-11-04T16:26:15.750Z,2.42
2022-11-04T16:28:46.577Z,3.13
2022-11-04T16:31:29.301Z,2.78
2022-11-04T16:33:58.184Z,3.63
2022-11-04T16:36:34.050Z,2.08
2022-11-04T16:39:08.521Z,3.30
2022-11-04T16:41:38.218Z,1.83
2022-11-04T16:44:11.315Z,3.60
2022-11-04T16:46:41.689Z,2.03
2022-11-04T16:49:11.864Z,2.80
2022-11-04T16:51:42.035Z,3.22
2022-11-04T16:54:11.636Z,5.38
2022-11-04T16:56:42.565Z,3.85
2022-11-04T16:59:19.565Z,2.97
2022-11-04T17:01:48.270Z,3.03
2022-11-04T17:04:18.388Z,2.88
2022-11-04T17:06:50.359Z,2.28
2022-11-04T17:09:22.126Z,3.95
2022-11-04T17:11:52.659Z,4.15
2022-11-04T17:14:23.564Z,4.05
2022-11-04T17:16:53.898Z,3.15
2022-11-04T17:19:22.243Z,5.03
2022-11-04T17:21:52.931Z,3.15
2022-11-04T17:24:24.520Z,3.58
2022-11-04T17:26:53.174Z,3.92
2022-11-04T17:29:27.489Z,6.25
2022-11-04T17:31:56.333Z,3.53
2022-11-04T17:34:25.919Z,4.03
2022-11-04T17:36:54.252Z,4.78
2022-11-04T17:39:24.089Z,2.90
2022-11-04T17:42:09.920Z,4.10
2022-11-04T17:44:38.381Z,3.60
2022-11-04T17:47:10.978Z,2.50
2022-11-04T17:49:43.990Z,3.55
2022-11-04T17:52:15.083Z,4.97
2022-11-04T17:54:44.729Z,5.18
2022-11-04T17:57:15.482Z,3.28
2022-11-04T17:59:43.743Z,3.65
2022-11-04T18:02:12.377Z,5.28
2022-11-04T18:04:40.937Z,8.40
2022-11-04T18:07:09.714Z,6.75
2022-11-04T18:09:40.391Z,4.82
2022-11-04T18:12:27.561Z,6.88
2022-11-04T18:14:55.878Z,5.85
2022-11-04T18:17:24.867Z,5.05
2022-11-04T18:22:49.500Z,5.45
2022-11-04T18:25:18.460Z,3.60
2022-11-04T18:27:48.913Z,5.95
2022-11-04T18:30:17.458Z,5.38
2022-11-04T18:32:45.697Z,5.05
2022-11-04T18:35:16.203Z,6.07
2022-11-04T18:37:47.333Z,8.50
2022-11-04T18:40:16.230Z,4.70
2022-11-04T18:42:49.055Z,5.75
2022-11-04T18:45:19.883Z,3.50
2022-11-04T18:47:49.096Z,6.25
2022-11-04T18:50:17.538Z,4.55
2022-11-04T18:52:47.974Z,5.97
2022-11-04T18:55:16.426Z,8.68
2022-11-04T18:57:45.391Z,5.28
2022-11-04T19:00:17.552Z,5.05
2022-11-04T19:02:47.212Z,7.60
2022-11-04T19:05:20.077Z,6.93
2022-11-04T19:07:48.562Z,7.22
2022-11-04T19:10:17.119Z,5.93
2022-11-04T19:13:02.847Z,7.28
2022-11-04T19:15:32.061Z,6.68
2022-11-04T19:18:01.610Z,6.22
2022-11-04T19:20:29.901Z,6.75
2022-11-04T19:22:58.341Z,8.38
2022-11-04T19:25:31.866Z,6.32
2022-11-04T19:28:31.457Z,5.72
2022-11-04T19:31:00.591Z,6.25
2022-11-04T19:33:34.680Z,4.47
2022-11-04T19:36:04.735Z,5.28
2022-11-04T19:38:36.303Z,5.40
2022-11-04T19:41:05.348Z,7.07
2022-11-04T19:43:32.704Z,6.82
2022-11-04T19:46:04.288Z,7.53
2022-11-04T19:48:34.578Z,13.15
2022-11-04T19:51:03.060Z,6.32
2022-11-04T19:53:31.353Z,6.43
2022-11-04T19:56:02.172Z,7.53
2022-11-04T19:58:30.487Z,5.53
2022-11-04T20:01:03.428Z,6.47
2022-11-04T20:03:39.326Z,5.03
2022-11-04T20:06:11.198Z,5.25
2022-11-04T20:08:40.740Z,6.85
2022-11-04T20:11:09.806Z,3.83
2022-11-04T20:13:49.331Z,6.45
2022-11-04T20:16:20.219Z,6.00
2022-11-04T20:18:52.432Z,8.38
2022-11-04T20:21:32.252Z,6.75
2022-11-04T20:24:01.379Z,5.00
2022-11-04T20:26:34.172Z,5.80
2022-11-04T20:29:02.656Z,6.95
2022-11-04T20:31:36.701Z,6.40
2022-11-04T20:34:18.625Z,9.38
2022-11-04T20:36:48.397Z,6.22
2022-11-04T20:39:22.026Z,9.00
2022-11-04T20:41:50.627Z,6.20
2022-11-04T20:44:19.063Z,8.52
2022-11-04T20:46:55.328Z,6.28
2022-11-04T20:49:24.714Z,4.68
2022-11-04T20:51:55.811Z,7.60
2022-11-04T20:54:25.521Z,5.25
2022-11-04T20:56:53.862Z,3.53
2022-11-04T20:59:22.771Z,5.07
2022-11-04T21:01:57.247Z,8.52
2022-11-04T21:04:36.304Z,5.85
2022-11-04T21:07:11.062Z,3.67
2022-11-04T21:09:43.311Z,6.97
2022-11-04T21:12:13.935Z,6.90
2022-11-04T21:14:47.622Z,5.70
2022-11-04T21:17:17.335Z,2.58
2022-11-04T21:19:49.055Z,5.00
2022-11-04T21:22:21.997Z,7.30
2022-11-04T21:24:50.783Z,6.65
2022-11-04T21:27:21.925Z,4.00
2022-11-04T21:29:52.378Z,7.78
2022-11-04T21:32:20.895Z,7.45
2022-11-04T21:34:51.515Z,1.67
2022-11-04T21:37:21.160Z,6.57
2022-11-04T21:39:49.609Z,3.10
2022-11-04T21:42:17.821Z,2.55
2022-11-04T21:44:46.035Z,2.13
2022-11-04T21:47:14.479Z,2.88
2022-11-04T21:49:44.161Z,4.78
2022-11-04T21:52:12.722Z,7.88
2022-11-04T21:54:42.720Z,1.52
2022-11-04T21:57:11.064Z,1.55
2022-11-04T21:59:41.722Z,5.55
2022-11-04T22:02:11.085Z,5.68
2022-11-04T22:04:39.658Z,1.02
2022-11-04T22:07:10.810Z,1.77
2022-11-04T22:09:41.410Z,3.15
2022-11-04T22:12:16.331Z,5.32
2022-11-04T22:14:44.970Z,2.50
2022-11-04T22:17:13.165Z,3.88
2022-11-04T22:19:41.881Z,3.33
2022-11-04T22:22:10.795Z,1.48
2022-11-04T22:24:39.153Z,8.35
2022-11-04T22:27:09.888Z,8.65
2022-11-04T22:29:39.788Z,3.45
2022-11-04T22:32:08.075Z,4.55
2022-11-04T22:34:36.420Z,3.20
2022-11-04T22:37:04.598Z,3.03
2022-11-04T22:39:32.809Z,3.53
2022-11-04T22:42:01.013Z,3.58
2022-11-04T22:44:29.461Z,3.60
2022-11-04T22:46:59.031Z,1.42
2022-11-04T22:49:27.239Z,5.13
2022-11-04T22:51:58.165Z,2.28
2022-11-04T22:54:26.758Z,4.70
2022-11-04T22:56:54.947Z,4.47
2022-11-04T22:59:25.625Z,8.52
2022-11-04T23:01:56.177Z,3.63
2022-11-04T23:04:25.903Z,1.88
2022-11-04T23:06:54.089Z,2.60
2022-11-04T23:09:22.287Z,4.18
2022-11-04T23:12:08.549Z,2.47
2022-11-04T23:14:54.722Z,1.27
2022-11-04T23:17:42.423Z,4.63
2022-11-04T23:20:13.964Z,3.95
2022-11-04T23:23:00.427Z,3.95
2022-11-04T23:25:28.743Z,5.28
2022-11-04T23:28:14.897Z,3.35
2022-11-04T23:30:44.662Z,6.00
2022-11-04T23:33:14.312Z,5.88
2022-11-04T23:36:02.968Z,3.85
2022-11-04T23:38:31.393Z,2.88
2022-11-04T23:41:18.473Z,2.70
2022-11-04T23:43:47.216Z,3.05
2022-11-04T23:46:47.772Z,1.75
2022-11-04T23:49:33.566Z,6.32
2022-11-04T23:52:20.974Z,2.65
2022-11-04T23:55:07.049Z,5.78
2022-11-04T23:57:53.102Z,5.15
